Terminal Aerodrome Forecast
Issued by NWS

Home | Current Version | Previous Version | Text Only | Print | Product List | Glossary On
Versions: 1 2 3 4 5 6 7 8 9 10 11 12
480
FTUS46 KHNX 301120
TAFBFL
TAF
KBFL 301120Z 3012/3112 VRB04KT P6SM SKC
     FM301900 30011G17KT P6SM SKC
     FM310200 35007KT P6SM SKC
     FM310600 VRB04KT P6SM SKC=

USA.gov is the U.S. government's official web portal to all federal, state and local government web resources and services.